Time;durP1;ratioP1;P1;durP2;ratioP2;P2;SDS_P1;SDS_P2;PMS_P1;PMS_P2;Temp;Humidity;BMP_temperature;BMP_pressure;BME280_temperature;BME280_humidity;BME280_pressure;Samples;Min_cycle;Max_cycle;Signal;HPM_P1;HPM_P2
2022/11/28 00:02:17;;;;;;;27.15;15.63;;;6.10;99.90;;;;;;5015932;28;20057;-81
2022/11/28 00:05:03;;;;;;;28.73;16.15;;;6.10;99.90;;;;;;5031887;28;20086;-82
2022/11/28 00:07:50;;;;;;;28.83;16.23;;;6.10;99.90;;;;;;5032156;28;20049;-82
2022/11/28 00:10:40;;;;;;;29.85;16.45;;;6.10;99.90;;;;;;5030785;28;20140;-82
2022/11/28 00:13:26;;;;;;;30.55;16.70;;;6.10;99.90;;;;;;5014542;28;20133;-81
2022/11/28 00:16:16;;;;;;;27.13;15.48;;;6.10;99.90;;;;;;5012529;28;20096;-82
2022/11/28 00:19:05;;;;;;;28.75;15.60;;;6.10;99.90;;;;;;5012360;28;20132;-81
2022/11/28 00:21:51;;;;;;;27.90;15.13;;;6.10;99.90;;;;;;5030240;28;20049;-81
2022/11/28 00:24:39;;;;;;;30.88;15.27;;;6.00;99.90;;;;;;5012955;28;20152;-80
2022/11/28 00:27:25;;;;;;;32.35;17.17;;;6.10;99.90;;;;;;5031089;28;20053;-81
2022/11/28 00:30:11;;;;;;;30.05;15.20;;;6.10;99.90;;;;;;5033175;28;20093;-82
2022/11/28 00:32:58;;;;;;;28.33;16.48;;;6.10;99.90;;;;;;5013297;28;20056;-81
2022/11/28 00:35:44;;;;;;;31.55;16.92;;;6.00;99.90;;;;;;5012775;28;20508;-82
2022/11/28 00:38:31;;;;;;;30.30;15.82;;;6.00;99.90;;;;;;5016520;28;20049;-81
2022/11/28 00:41:23;;;;;;;27.15;15.23;;;6.00;99.90;;;;;;5011877;28;20053;-80
2022/11/28 00:44:10;;;;;;;30.55;16.63;;;6.10;99.90;;;;;;5018768;28;20053;-81
2022/11/28 00:46:56;;;;;;;28.65;16.20;;;6.10;99.90;;;;;;4986052;28;20083;-81
2022/11/28 00:49:43;;;;;;;27.23;16.17;;;6.00;99.90;;;;;;5013035;28;20045;-81
2022/11/28 00:52:32;;;;;;;29.30;15.82;;;6.00;99.90;;;;;;5030228;28;20056;-82
2022/11/28 00:55:18;;;;;;;29.60;16.48;;;6.00;99.90;;;;;;5029691;28;20505;-82
2022/11/28 00:58:04;;;;;;;29.92;16.13;;;6.00;99.90;;;;;;5015213;28;20063;-82
2022/11/28 01:00:50;;;;;;;32.13;17.55;;;6.00;99.90;;;;;;5011870;28;20513;-82
2022/11/28 01:03:37;;;;;;;31.77;18.20;;;6.00;99.90;;;;;;5015684;28;20124;-81
2022/11/28 01:06:29;;;;;;;36.38;19.65;;;6.00;99.90;;;;;;5028540;28;20045;-81
2022/11/28 01:09:18;;;;;;;28.50;17.23;;;6.00;99.90;;;;;;5030750;28;20125;-81
2022/11/28 01:12:04;;;;;;;30.08;16.70;;;6.00;99.90;;;;;;5032312;28;20094;-82
2022/11/28 01:14:51;;;;;;;26.38;16.60;;;6.00;99.90;;;;;;5049611;28;20465;-81
2022/11/28 01:17:37;;;;;;;29.05;16.70;;;6.00;99.90;;;;;;5049683;28;20160;-81
2022/11/28 01:20:24;;;;;;;31.10;16.83;;;6.00;99.90;;;;;;5032502;28;20060;-81
2022/11/28 01:23:10;;;;;;;28.55;16.63;;;6.00;99.90;;;;;;5050835;28;20048;-81
2022/11/28 01:25:56;;;;;;;32.17;17.52;;;6.00;99.90;;;;;;5052399;28;20045;-81
2022/11/28 01:28:43;;;;;;;29.95;17.55;;;6.00;99.90;;;;;;5034561;28;20044;-81
2022/11/28 01:31:29;;;;;;;28.20;17.13;;;5.90;99.90;;;;;;5050113;28;20053;-82
2022/11/28 01:34:16;;;;;;;27.40;16.83;;;6.00;99.90;;;;;;5031783;28;20531;-81
2022/11/28 01:37:03;;;;;;;30.33;16.38;;;5.90;99.90;;;;;;5049094;28;20128;-81
2022/11/28 01:39:49;;;;;;;31.38;17.05;;;5.90;99.90;;;;;;5022544;28;20061;-81
2022/11/28 01:42:35;;;;;;;32.60;17.15;;;5.90;99.90;;;;;;5035115;28;20509;-81
2022/11/28 01:45:27;;;;;;;29.55;17.10;;;5.90;99.90;;;;;;5051096;28;20055;-82
2022/11/28 01:48:18;;;;;;;28.90;16.08;;;5.90;99.90;;;;;;5049856;28;20067;-81
2022/11/28 01:51:08;;;;;;;32.17;16.10;;;5.90;99.90;;;;;;5049495;28;20045;-82
2022/11/28 01:53:54;;;;;;;32.58;16.60;;;6.00;99.90;;;;;;5052674;28;20104;-82
2022/11/28 01:56:47;;;;;;;33.47;17.00;;;6.00;99.90;;;;;;5058892;28;20131;-81
2022/11/28 01:59:40;;;;;;;34.03;19.23;;;5.90;99.90;;;;;;5054579;28;20088;-81
2022/11/28 02:02:33;;;;;;;32.00;18.08;;;5.90;99.90;;;;;;5022801;28;20084;-82
2022/11/28 02:05:21;;;;;;;34.15;18.30;;;5.90;99.90;;;;;;5053128;28;20152;-81
2022/11/28 02:08:08;;;;;;;33.47;18.77;;;5.90;99.90;;;;;;5052941;28;20053;-81
2022/11/28 02:11:04;;;;;;;36.45;19.65;;;5.90;99.90;;;;;;5035177;28;20059;-81
2022/11/28 02:14:22;;;;;;;38.30;19.10;;;6.00;99.90;;;;;;5053936;28;20060;-81
2022/11/28 02:17:30;;;;;;;30.83;18.40;;;6.00;99.90;;;;;;5005539;28;20052;-81
2022/11/28 02:20:41;;;;;;;37.72;18.88;;;6.00;99.90;;;;;;5035334;28;20164;-81
2022/11/28 02:24:11;;;;;;;37.92;19.20;;;6.00;99.90;;;;;;5053174;28;20512;-81
2022/11/28 02:27:28;;;;;;;32.80;19.10;;;6.00;99.90;;;;;;5054433;28;20044;-81
2022/11/28 02:30:14;;;;;;;;;;;6.00;99.90;;;;;;5052876;28;20049;-81
2022/11/28 02:33:32;;;;;;;32.60;18.90;;;6.00;99.90;;;;;;5038885;28;19921;-81
2022/11/28 02:36:28;;;;;;;37.22;20.08;;;6.00;99.90;;;;;;5035475;28;20088;-81
2022/11/28 02:39:30;;;;;;;34.97;20.30;;;6.00;99.90;;;;;;5035668;28;20163;-82
2022/11/28 02:42:27;;;;;;;37.95;21.17;;;6.00;99.90;;;;;;5035395;28;20508;-82
2022/11/28 02:45:31;;;;;;;37.35;20.52;;;6.10;99.90;;;;;;5052707;28;20052;-82
2022/11/28 02:48:30;;;;;;;42.42;20.33;;;6.10;99.90;;;;;;5053485;28;20451;-82
2022/11/28 02:51:37;;;;;;;38.40;21.63;;;6.10;99.90;;;;;;5037524;28;20053;-81
2022/11/28 02:54:25;;;;;;;36.83;20.77;;;6.10;99.90;;;;;;5057026;28;20057;-81
2022/11/28 02:57:11;;;;;;;39.45;22.08;;;6.10;99.90;;;;;;5034968;28;20053;-82
2022/11/28 02:59:57;;;;;;;37.45;21.60;;;6.10;99.90;;;;;;5051890;28;20052;-82
2022/11/28 03:02:45;;;;;;;43.30;24.50;;;6.20;99.90;;;;;;5052789;28;20045;-81
2022/11/28 03:05:59;;;;;;;45.08;23.83;;;6.20;99.90;;;;;;5033538;28;20131;-82
2022/11/28 03:09:19;;;;;;;44.83;25.38;;;6.20;99.90;;;;;;5035110;28;20088;-81
2022/11/28 03:12:14;;;;;;;47.35;24.08;;;6.20;99.90;;;;;;5033914;28;20048;-82
2022/11/28 03:15:03;;;;;;;50.72;26.13;;;6.20;99.90;;;;;;5051596;28;20528;-81
2022/11/28 03:18:10;;;;;;;43.70;25.75;;;6.20;99.90;;;;;;5052113;28;20045;-82
2022/11/28 03:21:13;;;;;;;38.42;24.30;;;6.20;99.90;;;;;;5037670;28;20408;-82
2022/11/28 03:24:05;;;;;;;47.65;27.00;;;6.30;99.90;;;;;;5055994;28;20059;-82
2022/11/28 03:27:06;;;;;;;41.40;26.30;;;6.30;99.90;;;;;;5034181;28;20405;-81
2022/11/28 03:29:58;;;;;;;45.50;26.35;;;6.30;99.90;;;;;;5052449;28;20114;-81
2022/11/28 03:32:48;;;;;;;45.25;27.35;;;6.30;99.90;;;;;;5052102;28;20509;-81
2022/11/28 03:35:41;;;;;;;48.90;26.75;;;6.30;99.90;;;;;;5051699;28;20057;-82
2022/11/28 03:38:41;;;;;;;41.38;25.75;;;6.30;99.90;;;;;;5034844;28;20081;-81
2022/11/28 03:41:38;;;;;;;50.95;28.38;;;6.40;99.90;;;;;;5051330;28;20049;-81
2022/11/28 03:44:34;;;;;;;47.90;29.30;;;6.40;99.90;;;;;;5051618;28;20057;-82
2022/11/28 03:47:23;;;;;;;44.50;27.60;;;6.40;99.90;;;;;;5037480;28;20110;-81
2022/11/28 03:50:26;;;;;;;49.38;28.67;;;6.40;99.90;;;;;;5033406;28;20048;-82
2022/11/28 03:53:21;;;;;;;52.80;29.67;;;6.40;99.90;;;;;;5037520;28;20468;-82
2022/11/28 03:56:16;;;;;;;51.20;30.05;;;6.40;99.90;;;;;;5051083;28;20056;-81
2022/11/28 03:59:10;;;;;;;56.60;32.57;;;6.40;99.90;;;;;;5033119;28;20139;-81
2022/11/28 04:02:49;;;;;;;56.80;31.20;;;6.40;99.90;;;;;;5019147;28;20462;-81
2022/11/28 04:05:56;;;;;;;52.22;30.25;;;6.40;99.90;;;;;;4999021;28;20052;-81
2022/11/28 04:09:06;;;;;;;50.28;30.08;;;6.50;99.90;;;;;;5051103;28;20048;-82
2022/11/28 04:12:03;;;;;;;60.92;33.03;;;6.50;99.90;;;;;;5036344;28;20045;-82
2022/11/28 04:14:59;;;;;;;54.78;30.92;;;6.50;99.90;;;;;;5050566;28;20056;-81
2022/11/28 04:17:56;;;;;;;45.65;28.40;;;6.50;99.90;;;;;;5049699;28;20923;-82
2022/11/28 04:20:52;;;;;;;50.67;30.10;;;6.50;99.90;;;;;;5033113;28;20053;-82
2022/11/28 04:23:41;;;;;;;52.65;29.48;;;6.50;99.90;;;;;;5051979;28;20053;-81
2022/11/28 04:26:36;;;;;;;52.70;30.27;;;6.50;99.90;;;;;;5051255;28;20049;-82
2022/11/28 04:29:27;;;;;;;49.17;29.90;;;6.50;99.90;;;;;;5051976;28;20159;-81
2022/11/28 04:32:17;;;;;;;51.13;29.30;;;6.50;99.90;;;;;;5050921;28;20132;-81
2022/11/28 04:35:09;;;;;;;45.83;27.77;;;6.50;99.90;;;;;;5050945;28;20045;-82
2022/11/28 04:37:58;;;;;;;51.60;30.08;;;6.60;99.90;;;;;;5034735;28;20110;-82
2022/11/28 04:40:54;;;;;;;49.58;28.48;;;6.50;99.90;;;;;;5050447;28;20053;-81
2022/11/28 04:43:45;;;;;;;45.33;27.98;;;6.60;99.90;;;;;;5052383;28;20084;-81
2022/11/28 04:46:38;;;;;;;51.20;28.48;;;6.60;99.90;;;;;;5051480;28;20041;-81
2022/11/28 04:49:27;;;;;;;48.63;29.05;;;6.60;99.90;;;;;;5055315;28;20052;-82
2022/11/28 04:52:18;;;;;;;49.40;28.75;;;6.60;99.90;;;;;;5036398;28;20052;-81
2022/11/28 04:55:29;;;;;;;46.28;28.70;;;6.60;99.90;;;;;;5035924;28;20110;-81
2022/11/28 04:58:28;;;;;;;47.55;28.27;;;6.60;99.90;;;;;;5050950;28;20040;-80
2022/11/28 05:01:22;;;;;;;46.40;29.23;;;6.70;99.90;;;;;;5035804;28;20063;-80
2022/11/28 05:04:08;;;;;;;43.78;28.02;;;6.60;99.90;;;;;;5054178;28;20060;-80
2022/11/28 05:07:03;;;;;;;48.70;28.60;;;6.70;99.90;;;;;;5032720;28;20057;-79
2022/11/28 05:09:49;;;;;;;48.10;27.63;;;6.70;99.90;;;;;;5049885;28;20516;-80
2022/11/28 05:12:36;;;;;;;44.50;27.67;;;6.70;99.90;;;;;;5050078;28;20056;-80
2022/11/28 05:15:22;;;;;;;40.97;26.48;;;6.70;99.90;;;;;;5049651;28;20053;-81
2022/11/28 05:18:09;;;;;;;49.45;27.90;;;6.70;99.90;;;;;;5052654;28;20091;-81
2022/11/28 05:20:57;;;;;;;43.03;27.80;;;6.80;99.90;;;;;;5050365;28;20057;-80
2022/11/28 05:23:45;;;;;;;45.90;26.35;;;6.70;99.90;;;;;;5032064;28;20118;-80
2022/11/28 05:26:33;;;;;;;46.78;26.98;;;6.80;99.90;;;;;;5050603;28;20115;-81
2022/11/28 05:29:19;;;;;;;46.03;27.33;;;6.80;99.90;;;;;;5052904;28;20206;-80
2022/11/28 05:32:05;;;;;;;42.42;25.58;;;6.80;99.90;;;;;;5036635;28;20053;-81
2022/11/28 05:34:51;;;;;;;48.88;27.08;;;6.80;99.90;;;;;;5037184;28;20071;-80
2022/11/28 05:37:38;;;;;;;45.55;25.88;;;6.80;99.90;;;;;;5035478;28;20490;-81
2022/11/28 05:40:24;;;;;;;43.75;25.85;;;6.80;99.90;;;;;;5022537;28;20045;-80
2022/11/28 05:43:11;;;;;;;41.33;23.70;;;6.90;99.90;;;;;;5036480;28;20049;-81
2022/11/28 05:45:57;;;;;;;41.88;22.63;;;6.90;99.90;;;;;;5055823;28;20056;-81
2022/11/28 05:48:44;;;;;;;39.72;24.02;;;6.90;99.90;;;;;;5035770;28;20139;-81
2022/11/28 05:51:30;;;;;;;41.13;23.73;;;6.90;99.90;;;;;;5036806;28;20091;-81
2022/11/28 05:54:16;;;;;;;40.58;23.60;;;6.90;99.90;;;;;;5052789;28;20064;-81
2022/11/28 05:57:05;;;;;;;40.70;23.10;;;7.00;99.90;;;;;;5035744;28;20136;-80
2022/11/28 05:59:51;;;;;;;40.85;23.23;;;7.00;99.90;;;;;;5036582;28;20090;-81
2022/11/28 06:02:37;;;;;;;35.22;20.70;;;7.00;99.90;;;;;;5053611;28;20049;-81
2022/11/28 06:05:24;;;;;;;33.38;20.60;;;7.00;99.90;;;;;;5034978;28;20487;-81
2022/11/28 06:08:12;;;;;;;38.75;22.23;;;7.00;99.90;;;;;;5052946;28;20510;-81
2022/11/28 06:10:59;;;;;;;33.33;19.50;;;7.10;99.90;;;;;;5054255;28;20210;-81
2022/11/28 06:13:47;;;;;;;31.27;19.15;;;7.10;99.90;;;;;;5023169;28;20045;-81
2022/11/28 06:16:33;;;;;;;30.05;18.50;;;7.10;99.90;;;;;;5034751;28;20053;-81
2022/11/28 06:19:19;;;;;;;31.55;18.33;;;7.10;99.90;;;;;;5053370;28;20052;-80
2022/11/28 06:22:05;;;;;;;29.98;17.52;;;7.10;99.90;;;;;;5036401;28;20067;-80
2022/11/28 06:24:52;;;;;;;28.95;17.55;;;7.10;99.90;;;;;;5036261;28;20059;-81
2022/11/28 06:27:38;;;;;;;29.63;17.73;;;7.20;99.90;;;;;;5035646;28;20120;-81
2022/11/28 06:30:24;;;;;;;30.13;17.33;;;7.20;99.90;;;;;;5053550;28;20041;-81
2022/11/28 06:33:10;;;;;;;28.02;16.10;;;7.20;99.90;;;;;;5035014;28;20096;-81
2022/11/28 06:36:01;;;;;;;28.92;17.13;;;7.20;99.90;;;;;;5052852;28;20045;-81
2022/11/28 06:38:47;;;;;;;29.60;17.27;;;7.20;99.90;;;;;;5037917;28;20051;-81
2022/11/28 06:41:33;;;;;;;27.98;16.77;;;7.20;99.90;;;;;;5052074;28;20068;-81
2022/11/28 06:44:19;;;;;;;26.73;16.15;;;7.20;99.90;;;;;;5053078;28;20574;-81
2022/11/28 06:47:05;;;;;;;25.13;16.08;;;7.20;99.90;;;;;;5035427;28;20470;-81
2022/11/28 06:49:51;;;;;;;26.75;16.90;;;7.20;99.90;;;;;;5052161;28;20055;-80
2022/11/28 06:52:38;;;;;;;31.55;17.48;;;7.30;99.90;;;;;;5024546;28;20452;-81
2022/11/28 06:55:24;;;;;;;28.05;16.20;;;7.30;99.90;;;;;;5052830;28;20084;-81
2022/11/28 06:58:10;;;;;;;28.00;16.60;;;7.30;99.90;;;;;;5037165;28;20045;-82
2022/11/28 07:00:56;;;;;;;30.52;17.27;;;7.30;99.90;;;;;;5053477;28;20053;-82
2022/11/28 07:03:43;;;;;;;28.38;16.85;;;7.30;99.90;;;;;;5053264;28;20055;-82
2022/11/28 07:06:30;;;;;;;26.45;17.05;;;7.30;99.90;;;;;;5039088;28;20448;-82
2022/11/28 07:09:16;;;;;;;31.30;17.90;;;7.30;99.90;;;;;;5053706;28;20045;-82
2022/11/28 07:12:02;;;;;;;30.60;17.83;;;7.30;99.90;;;;;;5035971;28;20441;-82
2022/11/28 07:14:48;;;;;;;30.30;17.73;;;7.30;99.90;;;;;;5035190;28;20128;-81
2022/11/28 07:17:35;;;;;;;24.50;15.65;;;7.30;99.90;;;;;;5053455;28;20413;-81
2022/11/28 07:20:21;;;;;;;34.55;19.77;;;7.30;99.90;;;;;;5051881;28;20488;-81
2022/11/28 07:23:07;;;;;;;33.22;17.75;;;7.30;99.90;;;;;;5053183;28;20106;-82
2022/11/28 07:25:58;;;;;;;32.50;17.67;;;7.30;99.90;;;;;;5053143;28;20049;-81
2022/11/28 07:28:45;;;;;;;30.52;16.95;;;7.30;99.90;;;;;;5019968;28;20049;-81
2022/11/28 07:31:32;;;;;;;30.80;17.30;;;7.30;99.90;;;;;;5052425;28;20055;-81
2022/11/28 07:34:18;;;;;;;26.92;16.88;;;7.30;99.90;;;;;;5037606;28;20076;-81
2022/11/28 07:37:04;;;;;;;29.67;17.40;;;7.40;99.90;;;;;;5035743;28;20089;-80
2022/11/28 07:39:51;;;;;;;26.85;17.10;;;7.30;99.90;;;;;;5053441;28;20045;-80
2022/11/28 07:42:37;;;;;;;26.10;15.70;;;7.40;99.90;;;;;;5053020;28;20509;-80
2022/11/28 07:45:23;;;;;;;29.75;16.75;;;7.40;99.90;;;;;;5035591;28;20103;-81
2022/11/28 07:48:09;;;;;;;27.35;15.93;;;7.40;99.90;;;;;;5053463;28;20575;-80
2022/11/28 07:50:55;;;;;;;23.98;14.90;;;7.40;99.90;;;;;;5051787;28;20768;-81
2022/11/28 07:53:42;;;;;;;24.77;14.95;;;7.40;99.90;;;;;;5051578;28;20053;-81
2022/11/28 07:56:30;;;;;;;22.88;13.75;;;7.40;99.90;;;;;;5051875;28;20063;-81
2022/11/28 07:59:17;;;;;;;26.33;14.32;;;7.50;99.90;;;;;;5036332;28;20106;-81
2022/11/28 08:02:03;;;;;;;23.30;13.13;;;7.50;99.90;;;;;;5055100;28;20072;-81
2022/11/28 08:04:49;;;;;;;23.10;13.60;;;7.50;99.90;;;;;;5052111;28;20045;-81
2022/11/28 08:07:35;;;;;;;22.60;13.32;;;7.50;99.90;;;;;;5034218;28;20053;-82
2022/11/28 08:10:22;;;;;;;24.55;13.68;;;7.50;99.90;;;;;;5050689;28;20045;-81
2022/11/28 08:13:09;;;;;;;23.13;13.65;;;7.60;99.90;;;;;;5050163;28;20049;-81
2022/11/28 08:15:55;;;;;;;22.20;12.77;;;7.60;99.90;;;;;;5032940;28;20071;-81
2022/11/28 08:18:41;;;;;;;20.63;12.20;;;7.60;99.90;;;;;;5035799;28;20052;-81
2022/11/28 08:21:30;;;;;;;23.98;13.15;;;7.60;99.90;;;;;;5051428;28;20055;-81
2022/11/28 08:24:17;;;;;;;23.77;13.68;;;7.60;99.90;;;;;;5050504;28;20048;-81
2022/11/28 08:27:03;;;;;;;21.42;12.40;;;7.60;99.90;;;;;;5050149;28;20045;-81
2022/11/28 08:29:50;;;;;;;24.38;13.30;;;7.60;99.90;;;;;;5051828;28;20045;-81
2022/11/28 08:32:36;;;;;;;25.05;13.68;;;7.70;99.90;;;;;;5051210;28;20056;-80
2022/11/28 08:35:22;;;;;;;24.35;12.93;;;7.60;99.90;;;;;;5052476;28;20395;-82
2022/11/28 08:38:09;;;;;;;20.65;13.00;;;7.70;99.90;;;;;;5050541;28;20052;-81
2022/11/28 08:41:03;;;;;;;21.73;13.00;;;7.70;99.90;;;;;;5049716;28;20095;-81
2022/11/28 08:43:50;;;;;;;21.67;12.85;;;7.70;99.90;;;;;;5051234;28;20091;-81
2022/11/28 08:46:36;;;;;;;20.85;12.60;;;7.70;99.90;;;;;;5037705;28;20048;-80
2022/11/28 08:49:22;;;;;;;22.55;13.10;;;7.70;99.90;;;;;;5051238;28;20056;-81
2022/11/28 08:52:08;;;;;;;21.33;12.57;;;7.70;99.90;;;;;;5035404;28;20061;-81
2022/11/28 08:54:54;;;;;;;22.40;13.20;;;7.70;99.90;;;;;;5049931;28;20520;-80
2022/11/28 08:57:41;;;;;;;22.20;12.30;;;7.80;99.90;;;;;;5034538;28;20055;-81
2022/11/28 09:00:27;;;;;;;19.83;11.98;;;7.80;99.90;;;;;;5050956;28;20411;-81
2022/11/28 09:03:15;;;;;;;21.30;11.60;;;7.80;99.90;;;;;;5051781;28;20127;-81
2022/11/28 09:06:02;;;;;;;19.75;11.48;;;7.80;99.90;;;;;;5050689;28;20052;-81
2022/11/28 09:08:48;;;;;;;25.95;12.30;;;7.80;99.90;;;;;;5034683;28;20044;-81
2022/11/28 09:11:35;;;;;;;19.33;10.93;;;7.80;99.90;;;;;;5050476;28;20072;-81
2022/11/28 09:14:21;;;;;;;19.63;11.00;;;7.80;99.90;;;;;;5041572;28;20154;-81
2022/11/28 09:17:07;;;;;;;20.02;10.85;;;7.80;99.90;;;;;;5030663;28;20072;-81
2022/11/28 09:19:53;;;;;;;19.90;10.38;;;7.80;99.90;;;;;;5011810;28;20115;-80
2022/11/28 09:22:41;;;;;;;19.58;10.15;;;7.80;99.90;;;;;;5029732;28;20060;-81
2022/11/28 09:25:27;;;;;;;20.00;10.27;;;7.90;99.90;;;;;;4998980;28;20057;-80
2022/11/28 09:28:14;;;;;;;20.30;10.73;;;7.90;99.90;;;;;;5029829;28;20053;-81
2022/11/28 09:31:01;;;;;;;16.95;9.30;;;7.90;99.90;;;;;;5034208;28;20049;-81
2022/11/28 09:33:48;;;;;;;16.90;9.35;;;7.90;99.90;;;;;;5030260;28;20053;-81
2022/11/28 09:36:34;;;;;;;20.00;10.02;;;7.90;99.90;;;;;;5012755;28;20052;-80
2022/11/28 09:39:20;;;;;;;15.63;9.13;;;8.00;99.90;;;;;;5028177;28;20099;-80
2022/11/28 09:42:21;;;;;;;18.10;10.50;;;8.00;99.90;;;;;;5029545;28;20532;-80
2022/11/28 09:45:16;;;;;;;21.65;10.75;;;8.00;99.90;;;;;;5012167;28;20053;-81
2022/11/28 09:48:23;;;;;;;24.25;12.48;;;8.10;99.90;;;;;;5014765;28;20054;-81
2022/11/28 09:51:21;;;;;;;26.95;13.00;;;8.10;99.90;;;;;;5029418;28;20433;-81
2022/11/28 09:54:19;;;;;;;27.98;13.30;;;8.10;99.90;;;;;;5009943;28;20116;-81
2022/11/28 09:57:17;;;;;;;31.08;14.60;;;8.20;99.90;;;;;;5031069;28;20413;-80
2022/11/28 10:00:05;;;;;;;28.95;14.88;;;8.20;99.90;;;;;;5016666;28;20054;-80
2022/11/28 10:02:54;;;;;;;31.92;15.10;;;8.20;99.90;;;;;;5028487;28;20060;-81
2022/11/28 10:06:13;;;;;;;33.03;16.63;;;8.20;99.90;;;;;;5028784;28;20493;-81
2022/11/28 10:09:12;;;;;;;38.85;17.58;;;8.20;99.90;;;;;;5010994;28;20057;-81
2022/11/28 10:12:27;;;;;;;34.60;17.52;;;8.30;99.90;;;;;;5030308;28;20054;-81
2022/11/28 10:15:22;;;;;;;40.53;17.63;;;8.30;99.90;;;;;;5013705;28;20053;-81
2022/11/28 10:18:47;;;;;;;35.42;17.63;;;8.30;99.90;;;;;;5033689;28;20200;-81
2022/11/28 10:21:46;;;;;;;42.38;19.67;;;8.30;99.90;;;;;;5032478;28;20110;-80
2022/11/28 10:24:52;;;;;;;39.55;17.70;;;8.40;99.90;;;;;;5033633;28;20058;-81
2022/11/28 10:27:40;;;;;;;44.85;19.83;;;8.40;99.90;;;;;;5032968;28;20497;-81
2022/11/28 10:30:32;;;;;;;37.83;18.25;;;8.40;99.90;;;;;;5031710;28;20505;-81
2022/11/28 10:33:42;;;;;;;49.25;21.27;;;8.40;99.90;;;;;;5035031;28;20476;-82
2022/11/28 10:37:04;;;;;;;49.20;22.23;;;8.40;99.90;;;;;;5032808;28;20061;-81
2022/11/28 10:39:51;;;;;;;46.67;21.17;;;8.50;99.90;;;;;;5014530;28;20076;-83
2022/11/28 10:42:48;;;;;;;58.15;21.92;;;8.50;99.90;;;;;;5015332;28;20490;-80
2022/11/28 10:45:44;;;;;;;45.67;21.00;;;8.50;99.90;;;;;;5015847;28;20164;-82
2022/11/28 10:48:34;;;;;;;51.42;23.23;;;8.50;99.90;;;;;;5032751;28;20049;-81
2022/11/28 10:52:06;;;;;;;54.22;22.70;;;8.50;99.90;;;;;;5034148;28;20103;-82
2022/11/28 10:55:14;;;;;;;51.78;21.83;;;8.50;99.90;;;;;;5025228;28;20057;-80
2022/11/28 10:58:21;;;;;;;54.63;23.17;;;8.50;99.90;;;;;;5033513;28;20057;-81
2022/11/28 11:01:08;;;;;;;45.42;21.45;;;8.50;99.90;;;;;;5033880;28;20057;-81
2022/11/28 11:03:54;;;;;;;56.88;25.75;;;8.50;99.90;;;;;;5034283;28;20061;-81
2022/11/28 11:06:41;;;;;;;59.15;24.08;;;8.60;99.90;;;;;;5018600;28;20107;-80
2022/11/28 11:09:27;;;;;;;49.58;22.67;;;8.60;99.90;;;;;;5034200;28;20060;-82
2022/11/28 11:12:33;;;;;;;46.67;22.08;;;8.60;99.90;;;;;;5019906;28;20053;-81
2022/11/28 11:15:31;;;;;;;50.20;22.90;;;8.60;99.90;;;;;;5032889;28;20170;-81
2022/11/28 11:18:27;;;;;;;47.83;20.75;;;8.60;99.90;;;;;;5015673;28;20140;-80
2022/11/28 11:21:20;;;;;;;46.22;21.25;;;8.70;99.90;;;;;;5037103;28;20064;-80
2022/11/28 11:24:14;;;;;;;42.10;20.65;;;8.70;99.90;;;;;;5025072;28;20053;-81
2022/11/28 11:27:16;;;;;;;51.75;23.73;;;8.70;99.90;;;;;;5035046;28;20158;-81
2022/11/28 11:30:24;;;;;;;54.55;23.30;;;8.70;99.90;;;;;;5037152;28;20053;-81
2022/11/28 11:33:16;;;;;;;45.72;21.90;;;8.70;99.90;;;;;;5020787;28;20054;-80
2022/11/28 11:36:18;;;;;;;46.42;21.48;;;8.80;99.90;;;;;;5021603;28;20378;-80
2022/11/28 11:39:19;;;;;;;45.30;20.25;;;8.80;99.90;;;;;;5036500;28;20069;-80
2022/11/28 11:42:05;;;;;;;54.50;21.08;;;8.80;99.90;;;;;;5033093;28;20095;-81
2022/11/28 11:44:52;;;;;;;48.38;20.92;;;8.80;99.90;;;;;;5031496;28;20049;-80
2022/11/28 11:47:41;;;;;;;54.95;22.88;;;8.90;99.90;;;;;;5015866;28;20136;-81
2022/11/28 11:50:29;;;;;;;45.05;21.52;;;8.80;99.90;;;;;;5034004;28;20061;-80
2022/11/28 11:53:17;;;;;;;46.80;21.90;;;8.80;99.90;;;;;;5032575;28;20049;-80
2022/11/28 11:56:04;;;;;;;44.20;20.23;;;8.90;99.90;;;;;;5014550;28;20064;-81
2022/11/28 11:58:53;;;;;;;40.53;19.00;;;8.90;99.90;;;;;;5032516;28;20057;-81
2022/11/28 12:01:42;;;;;;;38.17;19.42;;;8.90;99.90;;;;;;5017032;28;20479;-80
2022/11/28 12:04:43;;;;;;;36.67;18.88;;;8.90;99.90;;;;;;5031663;28;20061;-80
2022/11/28 12:07:29;;;;;;;34.92;18.35;;;8.90;99.90;;;;;;5031353;28;20111;-80
2022/11/28 12:10:20;;;;;;;37.45;19.23;;;8.90;99.90;;;;;;5013386;28;20053;-80
2022/11/28 12:13:20;;;;;;;36.03;17.38;;;8.80;99.90;;;;;;5032157;28;20557;-80
2022/11/28 12:16:21;;;;;;;37.72;17.80;;;8.90;99.90;;;;;;5016933;28;20107;-80
2022/11/28 12:19:30;;;;;;;37.03;18.17;;;8.90;99.90;;;;;;5030924;28;20553;-80
2022/11/28 12:22:49;;;;;;;37.55;18.63;;;8.90;99.90;;;;;;5034105;28;20052;-80
2022/11/28 12:25:50;;;;;;;33.15;17.83;;;8.90;99.90;;;;;;5016102;28;20144;-82
2022/11/28 12:28:46;;;;;;;41.05;18.25;;;8.90;99.90;;;;;;5001307;28;20136;-80
2022/11/28 12:32:12;;;;;;;37.08;19.10;;;8.90;99.90;;;;;;5019588;28;20060;-80
2022/11/28 12:35:15;;;;;;;38.53;19.58;;;8.90;99.90;;;;;;5030394;28;20501;-80
2022/11/28 12:38:23;;;;;;;43.40;19.50;;;8.90;99.90;;;;;;5011854;28;20494;-80
2022/11/28 12:41:30;;;;;;;38.83;19.83;;;8.90;99.90;;;;;;5012701;28;20750;-80
2022/11/28 12:44:28;;;;;;;43.95;20.33;;;8.90;99.90;;;;;;5030808;28;20054;-80
2022/11/28 12:47:36;;;;;;;49.25;22.92;;;8.90;99.90;;;;;;5015351;28;20123;-79
2022/11/28 12:50:33;;;;;;;47.05;21.60;;;8.90;99.90;;;;;;5029781;28;20045;-80
2022/11/28 12:53:28;;;;;;;43.15;22.90;;;8.90;99.90;;;;;;5029521;28;20056;-80
2022/11/28 12:56:57;;;;;;;59.15;25.70;;;8.90;99.90;;;;;;5030189;28;20048;-81
2022/11/28 13:00:02;;;;;;;46.25;22.52;;;8.90;99.90;;;;;;5022930;28;20053;-80
2022/11/28 13:03:10;;;;;;;51.08;24.52;;;8.90;99.90;;;;;;5032328;28;20422;-80
2022/11/28 13:06:20;;;;;;;45.10;22.05;;;8.90;99.90;;;;;;5015993;28;20477;-80
2022/11/28 13:09:26;;;;;;;58.13;24.35;;;8.90;99.90;;;;;;5018047;28;20057;-81
2022/11/28 13:12:23;;;;;;;55.45;23.67;;;8.90;99.90;;;;;;5029731;28;20149;-80
2022/11/28 13:15:32;;;;;;;54.90;23.27;;;8.90;99.90;;;;;;5029477;28;20049;-80
2022/11/28 13:18:29;;;;;;;48.88;22.63;;;8.90;99.90;;;;;;5015070;28;20235;-79
2022/11/28 13:21:33;;;;;;;54.47;24.05;;;8.90;99.90;;;;;;4999234;28;20073;-80
2022/11/28 13:25:10;;;;;;;56.75;24.73;;;8.90;99.90;;;;;;5029751;28;20119;-81
2022/11/28 13:28:31;;;;;;;68.13;24.63;;;8.90;99.90;;;;;;5011645;28;20045;-80
2022/11/28 13:31:39;;;;;;;57.67;23.08;;;8.90;99.90;;;;;;5030358;28;20053;-80
2022/11/28 13:34:27;;;;;;;53.45;21.90;;;8.90;99.90;;;;;;5030220;28;20150;-80
2022/11/28 13:37:16;;;;;;;52.83;22.05;;;8.90;99.90;;;;;;5017171;28;20068;-80
2022/11/28 13:40:14;;;;;;;45.63;21.13;;;8.90;99.90;;;;;;5029804;28;20088;-80
2022/11/28 13:43:07;;;;;;;52.15;22.75;;;8.90;99.90;;;;;;5029977;28;20057;-80
2022/11/28 13:45:54;;;;;;;50.90;22.33;;;8.90;99.90;;;;;;5029868;28;20136;-81
2022/11/28 13:48:40;;;;;;;49.63;22.50;;;8.90;99.90;;;;;;5011516;28;20088;-80
2022/11/28 13:51:30;;;;;;;44.53;20.77;;;8.90;99.90;;;;;;5015501;28;20045;-80
2022/11/28 13:54:16;;;;;;;55.78;21.85;;;8.90;99.90;;;;;;5019080;28;20089;-81
2022/11/28 13:57:02;;;;;;;46.42;21.50;;;8.90;99.90;;;;;;5015724;28;20053;-80
2022/11/28 13:59:56;;;;;;;50.55;21.75;;;8.90;99.90;;;;;;5033453;28;20061;-80
2022/11/28 14:02:50;;;;;;;42.78;19.48;;;8.80;99.90;;;;;;5034111;28;20049;-80
2022/11/28 14:05:38;;;;;;;48.28;21.00;;;8.90;99.90;;;;;;5015586;28;20497;-80
2022/11/28 14:08:26;;;;;;;49.55;21.98;;;8.80;99.90;;;;;;5034160;28;20532;-81
2022/11/28 14:11:39;;;;;;;46.63;20.50;;;8.80;99.90;;;;;;5034222;28;20057;-80
2022/11/28 14:14:31;;;;;;;48.78;20.73;;;8.80;99.90;;;;;;5042439;28;20056;-80
2022/11/28 14:17:17;;;;;;;60.70;22.63;;;8.90;99.90;;;;;;5035935;28;20052;-80
2022/11/28 14:20:15;;;;;;;47.38;21.13;;;8.80;99.90;;;;;;5022827;28;20451;-80
2022/11/28 14:23:48;;;;;;;45.97;20.35;;;8.90;99.90;;;;;;5024209;28;20059;-80
2022/11/28 14:26:37;;;;;;;44.70;19.27;;;8.80;99.90;;;;;;5011594;28;20136;-82
2022/11/28 14:29:46;;;;;;;50.72;20.02;;;8.80;99.90;;;;;;5034217;28;20041;-81
2022/11/28 14:32:41;;;;;;;44.10;19.10;;;8.80;99.90;;;;;;5021730;28;20045;-80
2022/11/28 14:35:50;;;;;;;51.80;21.48;;;8.80;99.90;;;;;;5053874;28;20048;-81
2022/11/28 14:38:41;;;;;;;59.15;22.08;;;8.80;99.90;;;;;;5025194;28;20056;-80
2022/11/28 14:41:27;;;;;;;58.35;21.90;;;8.80;99.90;;;;;;5052913;28;20144;-81
2022/11/28 14:44:51;;;;;;;49.15;22.42;;;8.80;99.90;;;;;;5035156;28;20060;-80
2022/11/28 14:47:41;;;;;;;55.03;22.33;;;8.80;99.90;;;;;;5053022;28;20095;-80
2022/11/28 14:50:28;;;;;;;54.15;22.40;;;8.80;99.90;;;;;;5052033;28;20041;-81
2022/11/28 14:53:35;;;;;;;52.83;22.50;;;8.80;99.90;;;;;;5053438;28;20051;-80